Terminal Aerodrome Forecast
Issued by NWS

Home | Current Version | Previous Version | Graphics & Text | Print | Product List | Glossary On
Versions: 1 2 3 4 5 6 7 8 9 10 11 12 13 14 15
000
FTUS43 KBIS 180300 AAA
TAFMOT
TAF AMD
KMOT 180329Z 1803/1824 31014G20KT P6SM VCSH OVC027
     FM180600 25009KT P6SM SCT130
     FM181900 27018G26KT P6SM SCT025 BKN140
     FM182100 29020G29KT 6SM BLSN BKN030=

USA.gov is the U.S. government's official web portal to all federal, state and local government web resources and services.